createdAt,value
2024-05-09T00:00:15.972Z,26.25
2024-05-09T00:00:29.710Z,26.17
2024-05-09T00:00:35.990Z,26.15
2024-05-09T00:00:41.299Z,26.13
2024-05-09T00:00:50.286Z,26.16
2024-05-09T00:01:00.616Z,26.19
2024-05-09T00:01:10.689Z,26.20
2024-05-09T00:01:20.835Z,26.20
2024-05-09T00:01:31.067Z,26.20
2024-05-09T00:01:41.153Z,26.21
2024-05-09T00:01:51.075Z,26.23
2024-05-09T00:02:01.548Z,26.23
2024-05-09T00:02:11.519Z,26.23
2024-05-09T00:02:21.595Z,26.23
2024-05-09T00:02:31.967Z,26.24
2024-05-09T00:02:41.970Z,26.25
2024-05-09T00:02:52.023Z,26.25
2024-05-09T00:03:02.352Z,26.25
2024-05-09T00:03:12.727Z,26.24
2024-05-09T00:03:22.532Z,26.24
2024-05-09T00:03:32.809Z,26.24
2024-05-09T00:03:42.939Z,26.25
2024-05-09T00:03:53.041Z,26.25
2024-05-09T00:04:03.392Z,26.25
2024-05-09T00:04:13.365Z,26.25
2024-05-09T00:04:23.485Z,26.24
2024-05-09T00:04:33.469Z,26.25
2024-05-09T00:04:43.542Z,26.24
2024-05-09T00:04:53.616Z,26.25
2024-05-09T00:05:03.764Z,26.24
2024-05-09T00:05:13.885Z,26.24
2024-05-09T00:05:24.018Z,26.24
2024-05-09T00:05:34.151Z,26.24
2024-05-09T00:05:44.527Z,26.24
2024-05-09T00:05:54.191Z,26.23
2024-05-09T00:06:04.486Z,26.24
2024-05-09T00:06:14.562Z,26.24
2024-05-09T00:06:24.577Z,26.24
2024-05-09T00:06:34.588Z,26.24
2024-05-09T00:06:44.611Z,26.25
2024-05-09T00:06:54.621Z,26.25
2024-05-09T00:07:04.631Z,26.25
2024-05-09T00:07:14.623Z,26.25
2024-05-09T00:07:24.651Z,26.26
2024-05-09T00:07:34.662Z,26.27
2024-05-09T00:07:44.683Z,26.26
2024-05-09T00:07:54.803Z,26.26
2024-05-09T00:08:05.005Z,26.26
2024-05-09T00:08:14.948Z,26.26
2024-05-09T00:08:24.914Z,26.25
2024-05-09T00:08:35.141Z,26.26
2024-05-09T00:08:45.125Z,26.27
2024-05-09T00:08:55.116Z,26.27
2024-05-09T00:09:05.498Z,26.27
2024-05-09T00:09:15.492Z,26.27
2024-05-09T00:09:25.630Z,26.27
2024-05-09T00:09:35.908Z,26.28
2024-05-09T00:09:45.912Z,26.29
2024-05-09T00:09:55.923Z,26.28
2024-05-09T00:10:09.232Z,26.28
2024-05-09T00:10:25.105Z,26.21
2024-05-09T00:10:34.571Z,26.17
2024-05-09T00:10:38.440Z,26.15
2024-05-09T00:10:46.211Z,26.16
2024-05-09T00:10:56.331Z,26.18
2024-05-09T00:11:06.309Z,26.19
2024-05-09T00:11:16.559Z,26.20
2024-05-09T00:11:26.644Z,26.21
2024-05-09T00:11:36.610Z,26.21
2024-05-09T00:11:46.761Z,26.22
2024-05-09T00:11:56.838Z,26.22
2024-05-09T00:12:06.998Z,26.22
2024-05-09T00:12:16.946Z,26.23
2024-05-09T00:12:27.011Z,26.23
2024-05-09T00:12:36.998Z,26.23
2024-05-09T00:12:47.116Z,26.24
2024-05-09T00:12:57.398Z,26.24
2024-05-09T00:13:07.891Z,26.25
2024-05-09T00:13:17.423Z,26.24
2024-05-09T00:13:27.802Z,26.25
2024-05-09T00:13:37.820Z,26.25
2024-05-09T00:13:47.968Z,26.26
2024-05-09T00:13:58.256Z,26.27
2024-05-09T00:14:08.363Z,26.26
2024-05-09T00:14:18.409Z,26.27
2024-05-09T00:14:28.835Z,26.27
2024-05-09T00:14:38.813Z,26.26
2024-05-09T00:14:48.831Z,26.25
2024-05-09T00:14:59.080Z,26.26
2024-05-09T00:15:09.079Z,26.26
2024-05-09T00:15:19.101Z,26.26
2024-05-09T00:15:29.102Z,26.26
2024-05-09T00:15:39.194Z,26.26
2024-05-09T00:15:49.217Z,26.27
2024-05-09T00:15:59.234Z,26.26
2024-05-09T00:16:09.237Z,26.26
2024-05-09T00:16:19.258Z,26.25
2024-05-09T00:16:29.258Z,26.26
2024-05-09T00:16:39.534Z,26.26
2024-05-09T00:16:49.590Z,26.26
2024-05-09T00:16:59.638Z,26.26
2024-05-09T00:17:09.714Z,26.26
2024-05-09T00:17:19.879Z,26.26
2024-05-09T00:17:29.904Z,26.25
2024-05-09T00:17:40.113Z,26.25
2024-05-09T00:17:50.210Z,26.25
2024-05-09T00:18:00.259Z,26.25
2024-05-09T00:18:10.282Z,26.24
2024-05-09T00:18:20.362Z,26.25
2024-05-09T00:18:30.493Z,26.24
2024-05-09T00:18:40.656Z,26.24
2024-05-09T00:18:50.683Z,26.24
2024-05-09T00:19:00.716Z,26.24
2024-05-09T00:19:10.945Z,26.23
2024-05-09T00:19:21.137Z,26.24
2024-05-09T00:19:31.149Z,26.25
2024-05-09T00:19:41.082Z,26.25
2024-05-09T00:19:51.119Z,26.24
2024-05-09T00:20:01.267Z,26.25
2024-05-09T00:20:17.710Z,26.24
2024-05-09T00:20:28.093Z,26.19
2024-05-09T00:20:37.803Z,26.15
2024-05-09T00:20:41.658Z,26.11
2024-05-09T00:20:51.582Z,26.16
2024-05-09T00:21:01.631Z,26.18
2024-05-09T00:21:11.588Z,26.20
2024-05-09T00:21:21.583Z,26.20
2024-05-09T00:21:31.715Z,26.21
2024-05-09T00:21:41.834Z,26.21
2024-05-09T00:21:51.828Z,26.22
2024-05-09T00:22:02.093Z,26.21
2024-05-09T00:22:12.087Z,26.22
2024-05-09T00:22:22.103Z,26.22
2024-05-09T00:22:32.102Z,26.21
2024-05-09T00:22:42.287Z,26.21
2024-05-09T00:22:52.307Z,26.21
2024-05-09T00:23:02.379Z,26.21
2024-05-09T00:23:13.299Z,26.22
2024-05-09T00:23:22.553Z,26.22
2024-05-09T00:23:32.736Z,26.22
2024-05-09T00:23:42.969Z,26.21
2024-05-09T00:23:52.979Z,26.21
2024-05-09T00:24:03.111Z,26.21
2024-05-09T00:24:13.308Z,26.21
2024-05-09T00:24:23.331Z,26.21
2024-05-09T00:24:33.343Z,26.21
2024-05-09T00:24:43.712Z,26.22
2024-05-09T00:24:53.719Z,26.21
2024-05-09T00:25:03.721Z,26.21
2024-05-09T00:25:13.706Z,26.21
2024-05-09T00:25:23.838Z,26.21
2024-05-09T00:25:33.833Z,26.22
2024-05-09T00:25:44.366Z,26.22
2024-05-09T00:25:54.260Z,26.22
2024-05-09T00:26:04.321Z,26.21
2024-05-09T00:26:14.385Z,26.21
2024-05-09T00:26:24.505Z,26.21
2024-05-09T00:26:34.472Z,26.21
2024-05-09T00:26:44.539Z,26.21
2024-05-09T00:26:54.560Z,26.21
2024-05-09T00:27:04.721Z,26.20
2024-05-09T00:27:14.721Z,26.21
2024-05-09T00:27:24.839Z,26.20
2024-05-09T00:27:35.120Z,26.19
2024-05-09T00:27:45.105Z,26.19
2024-05-09T00:27:55.109Z,26.19
2024-05-09T00:28:05.123Z,26.18
2024-05-09T00:28:15.142Z,26.19
2024-05-09T00:28:25.147Z,26.19
2024-05-09T00:28:35.220Z,26.20
2024-05-09T00:28:45.268Z,26.20
2024-05-09T00:28:55.414Z,26.20
2024-05-09T00:29:05.358Z,26.19
2024-05-09T00:29:15.408Z,26.18
2024-05-09T00:29:25.522Z,26.18
2024-05-09T00:29:35.593Z,26.17
2024-05-09T00:29:45.609Z,26.17
2024-05-09T00:29:55.630Z,26.17
2024-05-09T00:30:07.308Z,26.17
2024-05-09T00:30:24.188Z,26.16
2024-05-09T00:30:33.414Z,26.10
2024-05-09T00:30:37.195Z,26.07
2024-05-09T00:30:45.832Z,26.09
2024-05-09T00:30:55.862Z,26.09
2024-05-09T00:31:05.852Z,26.11
2024-05-09T00:31:15.852Z,26.12
2024-05-09T00:31:25.985Z,26.14
2024-05-09T00:31:35.981Z,26.13
2024-05-09T00:31:46.141Z,26.12
2024-05-09T00:31:56.190Z,26.13
2024-05-09T00:32:06.458Z,26.14
2024-05-09T00:32:16.422Z,26.15
2024-05-09T00:32:26.795Z,26.15
2024-05-09T00:32:36.698Z,26.14
2024-05-09T00:32:46.673Z,26.13
2024-05-09T00:32:56.821Z,26.13
2024-05-09T00:33:08.255Z,26.12
2024-05-09T00:33:16.965Z,26.09
2024-05-09T00:33:27.005Z,26.10
2024-05-09T00:33:36.949Z,26.10
2024-05-09T00:33:47.129Z,26.10
2024-05-09T00:33:57.369Z,26.10
2024-05-09T00:34:07.392Z,26.11
2024-05-09T00:34:17.411Z,26.10
2024-05-09T00:34:27.363Z,26.10
2024-05-09T00:34:37.361Z,26.10
2024-05-09T00:34:47.386Z,26.10
2024-05-09T00:34:57.467Z,26.10
2024-05-09T00:35:07.509Z,26.10
2024-05-09T00:35:17.580Z,26.10
2024-05-09T00:35:27.779Z,26.10
2024-05-09T00:35:38.087Z,26.10
2024-05-09T00:35:47.643Z,26.10
2024-05-09T00:35:57.639Z,26.10
2024-05-09T00:36:07.665Z,26.09
2024-05-09T00:36:17.673Z,26.09
2024-05-09T00:36:27.670Z,26.09
2024-05-09T00:36:37.677Z,26.09
2024-05-09T00:36:47.674Z,26.10
2024-05-09T00:36:57.689Z,26.10
2024-05-09T00:37:08.074Z,26.10
2024-05-09T00:37:18.095Z,26.10
2024-05-09T00:37:28.096Z,26.09
2024-05-09T00:37:38.106Z,26.09
2024-05-09T00:37:48.138Z,26.09
2024-05-09T00:37:58.229Z,26.08
2024-05-09T00:38:08.505Z,26.09
2024-05-09T00:38:18.348Z,26.08
2024-05-09T00:38:28.436Z,26.08
2024-05-09T00:38:38.510Z,26.08
2024-05-09T00:38:48.813Z,26.08
2024-05-09T00:38:58.836Z,26.08
2024-05-09T00:39:08.896Z,26.08
2024-05-09T00:39:18.943Z,26.09
2024-05-09T00:39:28.948Z,26.08
2024-05-09T00:39:38.958Z,26.07
2024-05-09T00:39:48.952Z,26.08
2024-05-09T00:39:58.954Z,26.07
2024-05-09T00:40:15.106Z,26.08
2024-05-09T00:40:27.244Z,26.02
2024-05-09T00:40:35.773Z,25.98
2024-05-09T00:40:41.705Z,25.95
2024-05-09T00:40:49.289Z,25.94
2024-05-09T00:40:59.392Z,25.97
2024-05-09T00:41:09.462Z,25.98
2024-05-09T00:41:19.934Z,25.99
2024-05-09T00:41:29.813Z,25.98
2024-05-09T00:41:39.926Z,25.98
2024-05-09T00:41:49.956Z,25.99
2024-05-09T00:42:00.196Z,26.00
2024-05-09T00:42:10.326Z,25.99
2024-05-09T00:42:20.324Z,26.00
2024-05-09T00:42:30.595Z,26.00
2024-05-09T00:42:40.583Z,26.01
2024-05-09T00:42:50.610Z,26.00
2024-05-09T00:43:00.616Z,26.01
2024-05-09T00:43:11.218Z,26.00
2024-05-09T00:43:20.669Z,25.99
2024-05-09T00:43:30.672Z,26.00
2024-05-09T00:43:40.668Z,26.00
2024-05-09T00:43:50.861Z,26.01
2024-05-09T00:44:00.922Z,26.01
2024-05-09T00:44:11.115Z,26.01
2024-05-09T00:44:21.207Z,26.01
2024-05-09T00:44:31.295Z,26.01
2024-05-09T00:44:41.333Z,26.01
2024-05-09T00:44:51.335Z,26.01
2024-05-09T00:45:01.428Z,26.01
2024-05-09T00:45:11.409Z,26.01
2024-05-09T00:45:21.412Z,26.00
2024-05-09T00:45:31.425Z,26.00
2024-05-09T00:45:41.441Z,26.01
2024-05-09T00:45:51.436Z,26.00
2024-05-09T00:46:01.477Z,26.01
2024-05-09T00:46:11.486Z,26.01
2024-05-09T00:46:21.469Z,26.01
2024-05-09T00:46:31.502Z,26.02
2024-05-09T00:46:41.485Z,26.01
2024-05-09T00:46:51.568Z,26.02
2024-05-09T00:47:01.612Z,26.01
2024-05-09T00:47:11.797Z,26.01
2024-05-09T00:47:21.765Z,26.00
2024-05-09T00:47:31.826Z,26.00
2024-05-09T00:47:41.860Z,26.00
2024-05-09T00:47:52.117Z,25.99
2024-05-09T00:48:02.207Z,26.00
2024-05-09T00:48:14.113Z,25.99
2024-05-09T00:48:22.211Z,25.93
2024-05-09T00:48:32.307Z,25.96
2024-05-09T00:48:42.355Z,25.96
2024-05-09T00:48:52.354Z,25.96
2024-05-09T00:49:02.661Z,25.96
2024-05-09T00:49:12.665Z,25.96
2024-05-09T00:49:22.897Z,25.96
2024-05-09T00:49:32.761Z,25.96
2024-05-09T00:49:43.002Z,25.95
2024-05-09T00:49:52.886Z,25.96
2024-05-09T00:50:04.151Z,25.96
2024-05-09T00:50:19.220Z,25.96
2024-05-09T00:50:29.916Z,25.90
2024-05-09T00:50:36.520Z,25.87
2024-05-09T00:50:43.055Z,25.84
2024-05-09T00:50:53.104Z,25.87
2024-05-09T00:51:03.271Z,25.89
2024-05-09T00:51:13.307Z,25.89
2024-05-09T00:51:23.293Z,25.90
2024-05-09T00:51:33.333Z,25.90
2024-05-09T00:51:43.351Z,25.90
2024-05-09T00:51:53.340Z,25.90
2024-05-09T00:52:03.338Z,25.90
2024-05-09T00:52:13.471Z,25.90
2024-05-09T00:52:23.499Z,25.89
2024-05-09T00:52:33.501Z,25.89
2024-05-09T00:52:43.548Z,25.90
2024-05-09T00:52:53.584Z,25.90
2024-05-09T00:53:03.665Z,25.90
2024-05-09T00:53:14.086Z,25.90
2024-05-09T00:53:24.033Z,25.90
2024-05-09T00:53:34.151Z,25.90
2024-05-09T00:53:44.085Z,25.90
2024-05-09T00:53:54.106Z,25.89
2024-05-09T00:54:04.103Z,25.90
2024-05-09T00:54:14.096Z,25.90
2024-05-09T00:54:24.225Z,25.90
2024-05-09T00:54:34.256Z,25.90
2024-05-09T00:54:44.244Z,25.90
2024-05-09T00:54:54.508Z,25.91
2024-05-09T00:55:04.505Z,25.90
2024-05-09T00:55:14.520Z,25.91
2024-05-09T00:55:24.535Z,25.90
2024-05-09T00:55:34.557Z,25.89
2024-05-09T00:55:44.872Z,25.89
2024-05-09T00:55:54.625Z,25.89
2024-05-09T00:56:04.732Z,25.88
2024-05-09T00:56:14.741Z,25.88
2024-05-09T00:56:24.913Z,25.88
2024-05-09T00:56:34.846Z,25.88
2024-05-09T00:56:44.849Z,25.87
2024-05-09T00:56:54.975Z,25.87
2024-05-09T00:57:05.016Z,25.87
2024-05-09T00:57:15.041Z,25.87
2024-05-09T00:57:25.049Z,25.87
2024-05-09T00:57:35.063Z,25.87
2024-05-09T00:57:45.333Z,25.87
2024-05-09T00:57:55.323Z,25.86
2024-05-09T00:58:05.393Z,25.86
2024-05-09T00:58:15.398Z,25.86
2024-05-09T00:58:25.516Z,25.85
2024-05-09T00:58:35.521Z,25.86
2024-05-09T00:58:45.610Z,25.85
2024-05-09T00:58:55.609Z,25.85
2024-05-09T00:59:05.709Z,25.85
2024-05-09T00:59:15.794Z,25.85
2024-05-09T00:59:26.050Z,25.85
2024-05-09T00:59:36.158Z,25.85
2024-05-09T00:59:46.071Z,25.85
2024-05-09T00:59:56.071Z,25.85
2024-05-09T01:00:15.066Z,25.84
2024-05-09T01:00:26.100Z,25.79
2024-05-09T01:00:31.862Z,25.75
2024-05-09T01:00:39.801Z,25.72
2024-05-09T01:00:46.228Z,25.70
2024-05-09T01:00:56.256Z,25.73
2024-05-09T01:01:16.315Z,25.77
2024-05-09T01:01:26.381Z,25.78
2024-05-09T01:01:36.485Z,25.78
2024-05-09T01:01:46.552Z,25.79
2024-05-09T01:01:56.606Z,25.80
2024-05-09T01:02:07.049Z,25.79
2024-05-09T01:02:17.134Z,25.79
2024-05-09T01:02:27.122Z,25.80
2024-05-09T01:02:37.388Z,25.79
2024-05-09T01:02:47.523Z,25.79
2024-05-09T01:02:57.718Z,25.80
2024-05-09T01:03:08.458Z,25.79
2024-05-09T01:03:18.098Z,25.79
2024-05-09T01:03:28.285Z,25.79
2024-05-09T01:03:38.578Z,25.79
2024-05-09T01:03:50.942Z,25.79
2024-05-09T01:03:58.382Z,25.77
2024-05-09T01:04:08.488Z,25.78
2024-05-09T01:04:18.403Z,25.78
2024-05-09T01:04:28.487Z,25.78
2024-05-09T01:04:38.606Z,25.78
2024-05-09T01:04:48.925Z,25.79
2024-05-09T01:04:58.755Z,25.78
2024-05-09T01:05:08.918Z,25.79
2024-05-09T01:05:18.780Z,25.78
2024-05-09T01:05:29.112Z,25.78
2024-05-09T01:05:39.707Z,25.78
2024-05-09T01:05:49.241Z,25.78
2024-05-09T01:05:59.595Z,25.78
2024-05-09T01:06:09.647Z,25.79
2024-05-09T01:06:19.652Z,25.79
2024-05-09T01:06:29.902Z,25.78
2024-05-09T01:06:39.916Z,25.79
2024-05-09T01:06:49.920Z,25.78
2024-05-09T01:06:59.933Z,25.79
2024-05-09T01:07:09.932Z,25.79
2024-05-09T01:07:19.931Z,25.79
2024-05-09T01:07:30.051Z,25.79
2024-05-09T01:07:40.055Z,25.79
2024-05-09T01:07:50.080Z,25.78
2024-05-09T01:08:00.169Z,25.78
2024-05-09T01:08:10.819Z,25.78
2024-05-09T01:08:20.453Z,25.77
2024-05-09T01:08:30.579Z,25.77
2024-05-09T01:08:40.487Z,25.78
2024-05-09T01:08:50.517Z,25.77
2024-05-09T01:09:00.527Z,25.77
2024-05-09T01:09:10.551Z,25.78
2024-05-09T01:09:20.553Z,25.77
2024-05-09T01:09:30.569Z,25.77
2024-05-09T01:09:40.560Z,25.77
2024-05-09T01:09:50.987Z,25.77
2024-05-09T01:10:00.978Z,25.76
2024-05-09T01:10:17.050Z,25.77
2024-05-09T01:10:27.533Z,25.70
2024-05-09T01:10:34.279Z,25.67
2024-05-09T01:10:51.425Z,25.68
2024-05-09T01:11:01.596Z,25.69
2024-05-09T01:11:11.566Z,25.69
2024-05-09T01:11:21.586Z,25.70
2024-05-09T01:11:31.552Z,25.70
2024-05-09T01:11:41.668Z,25.71
2024-05-09T01:11:51.706Z,25.71
2024-05-09T01:12:01.952Z,25.72
2024-05-09T01:12:12.033Z,25.72
2024-05-09T01:12:21.972Z,25.73
2024-05-09T01:12:32.228Z,25.73
2024-05-09T01:12:42.274Z,25.72
2024-05-09T01:12:52.282Z,25.72
2024-05-09T01:13:02.592Z,25.73
2024-05-09T01:13:12.799Z,25.72
2024-05-09T01:13:22.653Z,25.72
2024-05-09T01:13:33.058Z,25.72
2024-05-09T01:13:43.116Z,25.72
2024-05-09T01:13:53.184Z,25.73
2024-05-09T01:14:03.359Z,25.73
2024-05-09T01:14:13.304Z,25.73
2024-05-09T01:14:23.421Z,25.73
2024-05-09T01:14:33.514Z,25.72
2024-05-09T01:14:43.534Z,25.73
2024-05-09T01:14:53.678Z,25.73
2024-05-09T01:15:03.664Z,25.73
2024-05-09T01:15:13.834Z,25.73
2024-05-09T01:15:23.826Z,25.72
2024-05-09T01:15:33.922Z,25.73
2024-05-09T01:15:43.885Z,25.72
2024-05-09T01:15:53.877Z,25.72
2024-05-09T01:16:03.898Z,25.73
2024-05-09T01:16:13.886Z,25.72
2024-05-09T01:16:23.895Z,25.72
2024-05-09T01:16:34.028Z,25.72
2024-05-09T01:16:44.099Z,25.72
2024-05-09T01:16:54.315Z,25.72
2024-05-09T01:17:14.570Z,25.71
2024-05-09T01:17:24.916Z,25.71
2024-05-09T01:17:34.977Z,25.72
2024-05-09T01:17:44.996Z,25.72
2024-05-09T01:17:55.076Z,25.71
2024-05-09T01:18:05.075Z,25.71
2024-05-09T01:18:15.173Z,25.72
2024-05-09T01:18:25.182Z,25.71
2024-05-09T01:18:35.462Z,25.72
2024-05-09T01:18:45.637Z,25.72
2024-05-09T01:18:55.733Z,25.71
2024-05-09T01:19:05.943Z,25.72
2024-05-09T01:19:16.126Z,25.71
2024-05-09T01:19:26.354Z,25.71
2024-05-09T01:19:36.087Z,25.71
2024-05-09T01:19:46.235Z,25.70
2024-05-09T01:19:56.302Z,25.70
2024-05-09T01:20:10.460Z,25.69
2024-05-09T01:20:20.094Z,25.64
2024-05-09T01:20:36.996Z,25.60
2024-05-09T01:20:41.734Z,25.57
2024-05-09T01:20:46.532Z,25.55
2024-05-09T01:20:56.638Z,25.59
2024-05-09T01:21:06.653Z,25.61
2024-05-09T01:21:16.699Z,25.62
2024-05-09T01:21:26.806Z,25.63
2024-05-09T01:21:36.839Z,25.63
2024-05-09T01:21:46.836Z,25.64
2024-05-09T01:21:56.840Z,25.64
2024-05-09T01:22:06.868Z,25.65
2024-05-09T01:22:16.856Z,25.66
2024-05-09T01:22:26.869Z,25.66
2024-05-09T01:22:36.876Z,25.66
2024-05-09T01:22:46.922Z,25.67
2024-05-09T01:22:56.989Z,25.67
2024-05-09T01:23:07.297Z,25.67
2024-05-09T01:23:17.397Z,25.67
2024-05-09T01:23:27.402Z,25.67
2024-05-09T01:23:37.535Z,25.67
2024-05-09T01:23:47.469Z,25.67
2024-05-09T01:23:57.592Z,25.67
2024-05-09T01:24:07.583Z,25.68
2024-05-09T01:24:17.702Z,25.67
2024-05-09T01:24:27.832Z,25.67
2024-05-09T01:24:37.826Z,25.67
2024-05-09T01:24:47.838Z,25.68
2024-05-09T01:24:57.850Z,25.67
2024-05-09T01:25:07.859Z,25.67
2024-05-09T01:25:17.873Z,25.66
2024-05-09T01:25:27.872Z,25.66
2024-05-09T01:25:38.116Z,25.65
2024-05-09T01:25:48.151Z,25.65
2024-05-09T01:25:58.200Z,25.66
2024-05-09T01:26:08.252Z,25.66
2024-05-09T01:26:18.290Z,25.66
2024-05-09T01:26:28.363Z,25.65
2024-05-09T01:26:38.673Z,25.66
2024-05-09T01:26:48.697Z,25.66
2024-05-09T01:26:58.828Z,25.67
2024-05-09T01:27:09.082Z,25.66
2024-05-09T01:27:19.104Z,25.66
2024-05-09T01:27:29.103Z,25.66
2024-05-09T01:27:39.104Z,25.65
2024-05-09T01:27:49.114Z,25.66
2024-05-09T01:27:59.275Z,25.65
2024-05-09T01:28:09.264Z,25.65
2024-05-09T01:28:19.300Z,25.65
2024-05-09T01:28:29.278Z,25.65
2024-05-09T01:28:39.283Z,25.65
2024-05-09T01:28:49.575Z,25.64
2024-05-09T01:28:59.625Z,25.64
2024-05-09T01:29:09.715Z,25.65
2024-05-09T01:29:20.138Z,25.65
2024-05-09T01:29:30.137Z,25.65
2024-05-09T01:29:40.123Z,25.65
2024-05-09T01:29:50.124Z,25.65
2024-05-09T01:30:00.201Z,25.65
2024-05-09T01:30:16.996Z,25.64
2024-05-09T01:30:24.554Z,25.58
2024-05-09T01:30:34.910Z,25.55
2024-05-09T01:30:40.387Z,25.52
2024-05-09T01:30:50.404Z,25.56
2024-05-09T01:31:00.393Z,25.58
2024-05-09T01:31:10.386Z,25.59
2024-05-09T01:31:20.500Z,25.59
2024-05-09T01:31:30.672Z,25.60
2024-05-09T01:31:40.735Z,25.60
2024-05-09T01:31:50.872Z,25.60
2024-05-09T01:32:01.060Z,25.60
2024-05-09T01:32:11.244Z,25.61
2024-05-09T01:32:21.453Z,25.60
2024-05-09T01:32:31.690Z,25.61
2024-05-09T01:32:41.628Z,25.61
2024-05-09T01:32:51.845Z,25.61
2024-05-09T01:33:02.203Z,25.60
2024-05-09T01:33:12.850Z,25.61
2024-05-09T01:33:22.172Z,25.60
2024-05-09T01:33:32.579Z,25.60
2024-05-09T01:33:42.233Z,25.60
2024-05-09T01:33:52.227Z,25.59
2024-05-09T01:34:02.249Z,25.61
2024-05-09T01:34:12.243Z,25.61
2024-05-09T01:34:22.651Z,25.61
2024-05-09T01:34:32.613Z,25.60
2024-05-09T01:34:42.698Z,25.61
2024-05-09T01:34:52.839Z,25.60
2024-05-09T01:35:02.968Z,25.60
2024-05-09T01:35:12.986Z,25.60
2024-05-09T01:35:22.972Z,25.61
2024-05-09T01:35:32.975Z,25.61
2024-05-09T01:35:43.422Z,25.61
2024-05-09T01:35:53.011Z,25.62
2024-05-09T01:36:03.172Z,25.61
2024-05-09T01:36:13.163Z,25.61
2024-05-09T01:36:23.282Z,25.61
2024-05-09T01:36:33.542Z,25.61
2024-05-09T01:36:43.542Z,25.61
2024-05-09T01:36:53.557Z,25.61
2024-05-09T01:37:03.563Z,25.61
2024-05-09T01:37:13.578Z,25.61
2024-05-09T01:37:23.597Z,25.61
2024-05-09T01:37:33.621Z,25.60
2024-05-09T01:37:43.642Z,25.60
2024-05-09T01:37:53.709Z,25.60
2024-05-09T01:38:03.978Z,25.59
2024-05-09T01:38:14.308Z,25.59
2024-05-09T01:38:24.054Z,25.58
2024-05-09T01:38:34.091Z,25.59
2024-05-09T01:38:44.135Z,25.59
2024-05-09T01:38:54.121Z,25.58
2024-05-09T01:39:04.137Z,25.59
2024-05-09T01:39:14.136Z,25.59
2024-05-09T01:39:24.133Z,25.59
2024-05-09T01:39:34.143Z,25.58
2024-05-09T01:39:44.269Z,25.58
2024-05-09T01:39:54.278Z,25.58
2024-05-09T01:40:07.354Z,25.59
2024-05-09T01:40:18.663Z,25.54
2024-05-09T01:40:33.744Z,25.50
2024-05-09T01:40:38.461Z,25.47
2024-05-09T01:40:44.994Z,25.45
2024-05-09T01:40:55.049Z,25.48
2024-05-09T01:41:05.087Z,25.51
2024-05-09T01:41:15.150Z,25.52
2024-05-09T01:41:25.283Z,25.53
2024-05-09T01:41:35.340Z,25.54
2024-05-09T01:41:45.364Z,25.54
2024-05-09T01:41:55.495Z,25.55
2024-05-09T01:42:05.520Z,25.55
2024-05-09T01:42:15.513Z,25.56
2024-05-09T01:42:25.510Z,25.56
2024-05-09T01:42:35.518Z,25.56
2024-05-09T01:42:45.549Z,25.56
2024-05-09T01:42:55.645Z,25.57
2024-05-09T01:43:05.678Z,25.57
2024-05-09T01:43:15.681Z,25.57
2024-05-09T01:43:25.679Z,25.56
2024-05-09T01:43:35.803Z,25.57
2024-05-09T01:43:46.007Z,25.57
2024-05-09T01:43:56.106Z,25.56
2024-05-09T01:44:06.176Z,25.56
2024-05-09T01:44:16.364Z,25.56
2024-05-09T01:44:26.530Z,25.57
2024-05-09T01:44:36.466Z,25.56
2024-05-09T01:44:46.483Z,25.56
2024-05-09T01:44:56.490Z,25.57
2024-05-09T01:45:06.487Z,25.57
2024-05-09T01:45:16.487Z,25.57
2024-05-09T01:45:26.506Z,25.57
2024-05-09T01:45:36.488Z,25.57
2024-05-09T01:45:46.505Z,25.57
2024-05-09T01:45:56.519Z,25.58
2024-05-09T01:46:06.521Z,25.57
2024-05-09T01:46:16.544Z,25.57
2024-05-09T01:46:26.551Z,25.58
2024-05-09T01:46:36.558Z,25.57
2024-05-09T01:46:46.560Z,25.58
2024-05-09T01:46:56.616Z,25.58
2024-05-09T01:47:06.683Z,25.58
2024-05-09T01:47:16.898Z,25.57
2024-05-09T01:47:26.992Z,25.57
2024-05-09T01:47:36.972Z,25.56
2024-05-09T01:47:47.040Z,25.56
2024-05-09T01:47:57.005Z,25.56
2024-05-09T01:48:07.238Z,25.56
2024-05-09T01:48:17.403Z,25.56
2024-05-09T01:48:27.452Z,25.56
2024-05-09T01:48:37.501Z,25.56
2024-05-09T01:48:47.838Z,25.56
2024-05-09T01:48:58.046Z,25.55
2024-05-09T01:49:08.304Z,25.55
2024-05-09T01:49:18.255Z,25.56
2024-05-09T01:49:28.327Z,25.55
2024-05-09T01:49:38.332Z,25.55
2024-05-09T01:49:48.412Z,25.54
2024-05-09T01:49:58.447Z,25.55
2024-05-09T01:50:10.796Z,25.54
2024-05-09T01:50:25.144Z,25.53
2024-05-09T01:50:36.971Z,25.48
2024-05-09T01:50:41.953Z,25.44
2024-05-09T01:50:48.835Z,25.42
2024-05-09T01:50:58.894Z,25.46
2024-05-09T01:51:09.093Z,25.47
2024-05-09T01:51:19.048Z,25.48
2024-05-09T01:51:29.303Z,25.48
2024-05-09T01:51:39.441Z,25.49
2024-05-09T01:51:49.442Z,25.50
2024-05-09T01:51:59.699Z,25.51
2024-05-09T01:52:09.695Z,25.52
2024-05-09T01:52:19.829Z,25.52
2024-05-09T01:52:30.086Z,25.52
2024-05-09T01:52:40.196Z,25.53
2024-05-09T01:52:50.227Z,25.53
2024-05-09T01:53:00.532Z,25.52
2024-05-09T01:53:10.796Z,25.53
2024-05-09T01:53:20.626Z,25.53
2024-05-09T01:53:30.883Z,25.52
2024-05-09T01:53:40.738Z,25.52
2024-05-09T01:53:50.719Z,25.53
2024-05-09T01:54:00.849Z,25.53
2024-05-09T01:54:10.976Z,25.53
2024-05-09T01:54:21.105Z,25.53
2024-05-09T01:54:31.100Z,25.54
2024-05-09T01:54:41.353Z,25.53
2024-05-09T01:54:51.361Z,25.53
2024-05-09T01:55:04.690Z,25.53
2024-05-09T01:55:11.351Z,25.46
2024-05-09T01:55:21.352Z,25.48
2024-05-09T01:55:31.356Z,25.50
2024-05-09T01:55:41.573Z,25.50
2024-05-09T01:55:51.587Z,25.51
2024-05-09T01:56:01.622Z,25.51
2024-05-09T01:56:11.765Z,25.50
2024-05-09T01:56:21.753Z,25.50
2024-05-09T01:56:32.146Z,25.50
2024-05-09T01:56:42.186Z,25.50
2024-05-09T01:56:52.200Z,25.50
2024-05-09T01:57:02.472Z,25.51
2024-05-09T01:57:12.465Z,25.50
2024-05-09T01:57:22.596Z,25.50
2024-05-09T01:57:32.853Z,25.50
2024-05-09T01:57:42.982Z,25.50
2024-05-09T01:57:53.041Z,25.50
2024-05-09T01:58:03.330Z,25.49
2024-05-09T01:58:13.332Z,25.49
2024-05-09T01:58:23.451Z,25.49
2024-05-09T01:58:33.705Z,25.49
2024-05-09T01:58:43.885Z,25.49
2024-05-09T01:58:53.963Z,25.48
2024-05-09T01:59:04.269Z,25.48
2024-05-09T01:59:14.379Z,25.48
2024-05-09T01:59:24.485Z,25.49
2024-05-09T01:59:34.670Z,25.49
2024-05-09T01:59:44.687Z,25.49
2024-05-09T01:59:54.689Z,25.49
2024-05-09T02:00:07.626Z,25.50
2024-05-09T02:00:22.168Z,25.48
2024-05-09T02:00:34.170Z,25.43
2024-05-09T02:00:40.047Z,25.39
2024-05-09T02:00:45.342Z,25.37
2024-05-09T02:00:55.392Z,25.40
2024-05-09T02:01:05.460Z,25.42
2024-05-09T02:01:15.558Z,25.43
2024-05-09T02:01:25.605Z,25.44
2024-05-09T02:01:55.618Z,25.45
2024-05-09T02:01:56.442Z,25.41
2024-05-09T02:01:57.711Z,25.37
2024-05-09T02:02:06.064Z,25.38
2024-05-09T02:02:16.134Z,25.41
2024-05-09T02:02:26.049Z,25.43
2024-05-09T02:02:36.197Z,25.44
2024-05-09T02:02:46.219Z,25.44
2024-05-09T02:02:56.537Z,25.44
2024-05-09T02:03:06.552Z,25.45
2024-05-09T02:03:17.823Z,25.45
2024-05-09T02:03:26.674Z,25.44
2024-05-09T02:03:36.632Z,25.44
2024-05-09T02:03:46.797Z,25.45
2024-05-09T02:03:56.765Z,25.45
2024-05-09T02:04:06.983Z,25.45
2024-05-09T02:04:17.042Z,25.46
2024-05-09T02:04:27.131Z,25.47
2024-05-09T02:04:37.066Z,25.47
2024-05-09T02:04:47.308Z,25.46
2024-05-09T02:04:57.450Z,25.47
2024-05-09T02:05:07.510Z,25.47
2024-05-09T02:05:17.881Z,25.47
2024-05-09T02:05:27.807Z,25.47
2024-05-09T02:05:37.906Z,25.47
2024-05-09T02:05:48.304Z,25.47
2024-05-09T02:05:58.170Z,25.47
2024-05-09T02:06:08.391Z,25.47
2024-05-09T02:06:18.315Z,25.47
2024-05-09T02:06:28.307Z,25.48
2024-05-09T02:06:38.309Z,25.49
2024-05-09T02:06:48.469Z,25.48
2024-05-09T02:06:58.472Z,25.49
2024-05-09T02:07:08.610Z,25.49
2024-05-09T02:07:18.598Z,25.50
2024-05-09T02:07:28.622Z,25.50
2024-05-09T02:07:38.764Z,25.48
2024-05-09T02:07:48.894Z,25.48
2024-05-09T02:07:58.985Z,25.49
2024-05-09T02:08:09.286Z,25.49
2024-05-09T02:08:19.708Z,25.48
2024-05-09T02:08:29.379Z,25.47
2024-05-09T02:08:39.536Z,25.47
2024-05-09T02:08:49.496Z,25.47
2024-05-09T02:08:59.499Z,25.47
2024-05-09T02:09:09.499Z,25.47
2024-05-09T02:09:19.651Z,25.47
2024-05-09T02:09:29.657Z,25.46
2024-05-09T02:09:39.677Z,25.46
2024-05-09T02:09:49.692Z,25.47
2024-05-09T02:09:59.688Z,25.47
2024-05-09T02:10:16.530Z,25.46
2024-05-09T02:10:25.983Z,25.40